Time;durP1;ratioP1;P1;durP2;ratioP2;P2;SDS_P1;SDS_P2;PMS_P1;PMS_P2;Temp;Humidity;BMP_temperature;BMP_pressure;BME280_temperature;BME280_humidity;BME280_pressure;Samples;Min_cycle;Max_cycle;Signal;HPM_P1;HPM_P2
2021/05/27 00:00:35;;;;;;;32.40;15.98;;;;;;;9.35;100.00;101364.50;5101520;28;20123;-64
2021/05/27 00:03:02;;;;;;;29.13;14.40;;;;;;;9.40;100.00;101361.94;5104166;28;20035;-64
2021/05/27 00:05:28;;;;;;;30.23;14.63;;;;;;;9.37;100.00;101360.13;5100953;28;20024;-64
2021/05/27 00:07:54;;;;;;;32.33;15.70;;;;;;;9.37;100.00;101359.25;5104325;28;20036;-64
2021/05/27 00:10:28;;;;;;;33.70;14.80;;;;;;;9.42;100.00;101366.41;5101099;28;20020;-64
2021/05/27 00:12:54;;;;;;;31.25;15.38;;;;;;;9.38;100.00;101364.56;5104143;28;20121;-64
2021/05/27 00:15:22;;;;;;;32.42;15.60;;;;;;;9.40;100.00;101364.59;5100784;28;20111;-74
2021/05/27 00:17:48;;;;;;;29.35;14.45;;;;;;;9.45;100.00;101370.84;5103924;28;20378;-70
2021/05/27 00:20:14;;;;;;;30.48;15.43;;;;;;;9.39;100.00;101378.63;5101843;28;20023;-66
2021/05/27 00:22:39;;;;;;;30.73;15.35;;;;;;;9.40;100.00;101377.78;5102754;28;20029;-67
2021/05/27 00:25:07;;;;;;;34.85;15.80;;;;;;;9.40;100.00;101386.56;5106789;28;20023;-74
2021/05/27 00:27:32;;;;;;;31.65;15.95;;;;;;;9.45;100.00;101375.22;5104976;28;20032;-68
2021/05/27 00:29:57;;;;;;;30.35;15.57;;;;;;;9.49;100.00;101382.34;5107747;28;20119;-64
2021/05/27 00:32:23;;;;;;;29.95;14.52;;;;;;;9.63;100.00;101382.59;5104586;28;20085;-65
2021/05/27 00:34:48;;;;;;;31.90;16.17;;;;;;;9.69;100.00;101386.19;5107119;28;20386;-66
2021/05/27 00:37:13;;;;;;;36.63;17.90;;;;;;;9.59;100.00;101394.81;5105403;28;20047;-69
2021/05/27 00:39:39;;;;;;;32.92;16.92;;;;;;;9.67;100.00;101395.84;5106037;28;20031;-64
2021/05/27 00:42:05;;;;;;;40.22;17.70;;;;;;;9.73;100.00;101382.75;5106535;28;20024;-66
2021/05/27 00:44:32;;;;;;;34.25;17.85;;;;;;;9.72;100.00;101395.94;5104505;28;20028;-67
2021/05/27 00:46:59;;;;;;;35.40;16.58;;;;;;;9.71;100.00;101391.50;5107900;28;20019;-66
2021/05/27 00:49:26;;;;;;;34.00;18.13;;;;;;;9.64;100.00;101395.81;5104002;28;20498;-70
2021/05/27 00:51:52;;;;;;;34.25;17.10;;;;;;;9.60;100.00;101388.69;5107380;27;20062;-67
2021/05/27 00:54:19;;;;;;;35.60;18.38;;;;;;;9.46;100.00;101390.19;5104626;28;20064;-64
2021/05/27 00:56:47;;;;;;;36.45;18.63;;;;;;;9.40;100.00;101388.34;5106534;28;20028;-64
2021/05/27 00:59:12;;;;;;;35.35;16.65;;;;;;;9.41;100.00;101379.56;5105410;28;20419;-64
2021/05/27 01:01:38;;;;;;;34.40;18.52;;;;;;;9.33;100.00;101382.03;5105421;28;20165;-64
2021/05/27 01:04:04;;;;;;;32.75;16.83;;;;;;;9.39;100.00;101376.00;5106594;28;20488;-64
2021/05/27 01:06:29;;;;;;;37.08;18.63;;;;;;;9.31;100.00;101378.50;5103918;28;20029;-64
2021/05/27 01:08:55;;;;;;;32.65;16.80;;;;;;;9.40;100.00;101388.34;5107478;28;20046;-64
2021/05/27 01:11:21;;;;;;;32.28;16.13;;;;;;;9.48;100.00;101388.47;5103791;28;20030;-64
2021/05/27 01:13:46;;;;;;;36.55;17.67;;;;;;;9.36;100.00;101387.41;5106503;28;20027;-64
2021/05/27 01:16:14;;;;;;;31.95;16.65;;;;;;;9.45;100.00;101391.06;5104856;27;20031;-64
2021/05/27 01:18:40;;;;;;;32.85;17.85;;;;;;;9.37;100.00;101391.81;5105074;28;20028;-64
2021/05/27 01:21:05;;;;;;;33.38;16.77;;;;;;;9.47;100.00;101395.50;5106058;28;20026;-64
2021/05/27 01:23:30;;;;;;;31.40;16.00;;;;;;;9.50;100.00;101398.19;5104030;28;20462;-64
2021/05/27 01:25:59;;;;;;;32.33;17.00;;;;;;;9.43;100.00;101399.81;5106865;28;20053;-64
2021/05/27 01:28:28;;;;;;;31.80;15.35;;;;;;;9.46;100.00;101403.41;5099392;28;20479;-64
2021/05/27 01:30:54;;;;;;;33.65;16.67;;;;;;;9.41;100.00;101404.19;5099271;28;20441;-64
2021/05/27 01:33:19;;;;;;;31.40;15.57;;;;;;;9.51;100.00;101412.25;5106244;28;20019;-64
2021/05/27 01:35:46;;;;;;;30.20;16.02;;;;;;;9.45;100.00;101404.25;5104215;28;20055;-64
2021/05/27 01:38:16;;;;;;;32.33;16.05;;;;;;;9.45;100.00;101410.44;5104905;28;20024;-71
2021/05/27 01:40:43;;;;;;;34.55;16.73;;;;;;;9.50;100.00;101415.78;5104530;28;20489;-68
2021/05/27 01:43:09;;;;;;;34.10;18.50;;;;;;;9.50;100.00;101408.75;5104995;28;20020;-67
2021/05/27 01:45:35;;;;;;;35.17;18.48;;;;;;;9.42;100.00;101410.34;5105490;28;20519;-66
2021/05/27 01:48:01;;;;;;;34.28;17.13;;;;;;;9.42;100.00;101408.63;5103500;28;20024;-70
2021/05/27 01:50:26;;;;;;;36.53;17.15;;;;;;;9.41;100.00;101412.13;5106578;28;20053;-70
2021/05/27 01:52:56;;;;;;;33.55;16.42;;;;;;;9.42;99.76;101413.00;5102946;28;20032;-67
2021/05/27 01:55:22;;;;;;;33.95;17.75;;;;;;;9.38;99.37;101414.69;5106012;28;20024;-66
2021/05/27 01:57:47;;;;;;;32.40;15.93;;;;;;;9.56;96.80;101421.16;5103508;28;20036;-68
2021/05/27 02:00:13;;;;;;;32.35;15.43;;;;;;;9.50;96.14;101418.44;5104734;28;20099;-68
2021/05/27 02:02:38;;;;;;;32.97;16.02;;;;;;;9.47;95.89;101431.56;5104811;28;20382;-65
2021/05/27 02:05:04;;;;;;;34.42;16.80;;;;;;;9.36;96.56;101420.81;5103413;28;20027;-69
2021/05/27 02:07:30;;;;;;;32.67;15.75;;;;;;;9.38;95.25;101427.00;5105766;28;20024;-68
2021/05/27 02:09:55;;;;;;;31.40;14.70;;;;;;;9.49;92.29;101445.69;5102462;28;20027;-66
2021/05/27 02:12:21;;;;;;;32.78;14.75;;;;;;;9.52;91.02;101427.25;5105743;28;20031;-66
2021/05/27 02:14:46;;;;;;;33.63;15.35;;;;;;;9.41;93.13;101420.03;5103067;28;20479;-65
2021/05/27 02:17:12;;;;;;;31.65;16.10;;;;;;;9.42;91.34;101421.81;5104287;28;20076;-67
2021/05/27 02:19:37;;;;;;;32.17;15.18;;;;;;;9.38;92.71;101422.63;5104891;28;20023;-68
2021/05/27 02:22:02;;;;;;;29.77;14.88;;;;;;;9.34;92.24;101412.88;5103107;28;20032;-66
2021/05/27 02:24:28;;;;;;;30.33;14.63;;;;;;;9.30;93.86;101423.34;5105711;28;20026;-69
2021/05/27 02:26:53;;;;;;;31.05;15.23;;;;;;;9.28;92.98;101436.50;5102676;28;20031;-64
2021/05/27 02:29:18;;;;;;;32.10;14.80;;;;;;;9.23;94.74;101432.88;5104802;28;20390;-64
2021/05/27 02:31:44;;;;;;;32.60;15.65;;;;;;;9.16;94.76;101429.25;5103243;28;20130;-64
2021/05/27 02:34:09;;;;;;;31.77;14.10;;;;;;;9.22;92.66;101432.00;5103752;28;20027;-64
2021/05/27 02:36:34;;;;;;;27.83;13.43;;;;;;;9.40;88.46;101428.78;5104602;28;20374;-64
2021/05/27 02:39:00;;;;;;;29.40;13.98;;;;;;;9.22;90.50;101428.47;5102276;28;20150;-65
2021/05/27 02:41:25;;;;;;;31.52;14.85;;;;;;;9.10;92.00;101425.59;5105397;28;20027;-65
2021/05/27 02:43:52;;;;;;;32.17;15.05;;;;;;;9.08;92.01;101439.63;5102078;28;20070;-65
2021/05/27 02:46:18;;;;;;;32.22;13.20;;;;;;;9.01;92.07;101436.84;5104305;28;20098;-65
2021/05/27 02:48:43;;;;;;;31.50;13.55;;;;;;;8.98;91.87;101429.75;5103027;28;20024;-65
2021/05/27 02:51:09;;;;;;;32.13;14.07;;;;;;;8.98;91.90;101442.94;5101812;28;20036;-64
2021/05/27 02:53:34;;;;;;;31.10;13.70;;;;;;;9.16;90.27;101452.06;5104677;28;20028;-65
2021/05/27 02:55:59;;;;;;;29.88;13.32;;;;;;;9.16;89.55;101454.72;5101557;28;20020;-65
2021/05/27 02:58:25;;;;;;;30.48;14.18;;;;;;;9.07;90.24;101447.50;5105337;28;20023;-64
2021/05/27 03:00:50;;;;;;;31.67;14.98;;;;;;;8.97;91.36;101445.53;5102397;28;20027;-65
2021/05/27 03:03:16;;;;;;;31.85;14.23;;;;;;;9.06;89.34;101444.00;5104088;28;20016;-65
2021/05/27 03:05:45;;;;;;;33.72;15.82;;;;;;;8.90;91.87;101444.53;5103443;28;20032;-65
2021/05/27 03:08:10;;;;;;;32.10;15.05;;;;;;;9.01;90.19;101447.38;5103257;28;20051;-64
2021/05/27 03:10:35;;;;;;;30.75;14.90;;;;;;;8.97;90.52;101441.19;5103832;28;20062;-65
2021/05/27 03:13:01;;;;;;;32.13;15.13;;;;;;;8.90;91.31;101452.44;5101682;28;20050;-65
2021/05/27 03:15:27;;;;;;;30.63;14.45;;;;;;;8.97;90.28;101451.72;5104842;28;20110;-65
2021/05/27 03:17:52;;;;;;;31.48;14.90;;;;;;;8.91;92.20;101456.84;5101727;28;20543;-65
2021/05/27 03:20:17;;;;;;;29.95;13.95;;;;;;;8.97;90.62;101453.44;5104241;28;20059;-64
2021/05/27 03:22:43;;;;;;;30.63;14.10;;;;;;;9.03;89.56;101451.84;5102703;28;20114;-65
2021/05/27 03:25:09;;;;;;;29.27;13.70;;;;;;;8.91;90.58;101454.22;5101385;28;20052;-65
2021/05/27 03:27:34;;;;;;;28.17;12.70;;;;;;;8.98;89.03;101456.13;5103948;28;20019;-74
2021/05/27 03:30:00;;;;;;;31.00;14.13;;;;;;;9.02;88.11;101459.72;5101111;28;20021;-71
2021/05/27 03:32:26;;;;;;;30.30;13.85;;;;;;;8.99;88.43;101450.00;5104407;28;20455;-66
2021/05/27 03:34:51;;;;;;;27.48;12.35;;;;;;;8.94;89.25;101464.84;5101742;28;20028;-72
2021/05/27 03:37:17;;;;;;;30.58;13.63;;;;;;;9.05;88.39;101460.66;5103553;28;20471;-69
2021/05/27 03:40:11;;;;;;;26.33;11.63;;;;;;;9.04;87.81;101473.81;5102850;28;20470;-65
2021/05/27 03:42:31;;;;;;;29.67;13.85;;;;;;;9.03;87.71;101479.97;5097812;28;20032;-75
2021/05/27 03:44:56;;;;;;;30.35;12.68;;;;;;;8.97;87.89;101466.63;5104817;28;20364;-73
2021/05/27 03:47:21;;;;;;;32.33;13.85;;;;;;;8.96;88.09;101478.06;5101401;28;20467;-67
2021/05/27 03:49:47;;;;;;;27.83;12.40;;;;;;;8.93;88.59;101477.97;5103302;28;20020;-69
2021/05/27 03:52:12;;;;;;;28.30;12.55;;;;;;;8.86;89.05;101480.47;5102816;28;20028;-70
2021/05/27 03:54:37;;;;;;;28.13;12.40;;;;;;;8.82;91.35;101472.47;5102010;28;20056;-73
2021/05/27 03:57:03;;;;;;;28.33;12.43;;;;;;;8.85;90.86;101480.44;5102434;28;20035;-72
2021/05/27 04:02:12;;;;;;;28.08;12.30;;;;;;;8.89;90.63;101482.31;5105582;28;20051;-70
2021/05/27 04:07:24;;;;;;;31.42;13.40;;;;;;;8.89;90.95;101480.53;5108223;28;20082;-70
2021/05/27 04:09:49;;;;;;;33.45;15.15;;;;;;;8.89;90.19;101479.66;5105483;27;20594;-69
2021/05/27 04:17:43;;;;;;;30.38;13.20;;;;;;;8.82;91.86;101480.38;5105055;28;20042;-74
2021/05/27 04:20:10;;;;;;;29.58;12.52;;;;;;;8.84;91.52;101483.94;5105402;28;20034;-65
2021/05/27 04:22:35;;;;;;;33.38;14.85;;;;;;;8.77;92.83;101480.28;5105351;28;20074;-73
2021/05/27 04:25:01;;;;;;;33.63;15.38;;;;;;;8.71;94.30;101488.97;5108394;28;20027;-67
2021/05/27 04:27:26;;;;;;;31.25;13.15;;;;;;;8.88;92.79;101491.06;5104717;28;20012;-67
2021/05/27 04:29:52;;;;;;;31.80;14.77;;;;;;;8.75;94.31;101486.38;5107567;28;20059;-70
2021/05/27 04:35:01;;;;;;;36.35;16.33;;;;;;;8.67;97.88;101483.59;5101308;28;20400;-65
2021/05/27 04:37:27;;;;;;;32.13;14.25;;;;;;;8.69;96.47;101485.41;5107983;28;20023;-76
2021/05/27 04:39:52;;;;;;;35.53;15.15;;;;;;;8.65;98.57;101491.47;5104701;28;20020;-72
2021/05/27 04:42:17;;;;;;;33.60;15.38;;;;;;;8.64;99.06;101488.78;5106758;28;20459;-68
2021/05/27 04:44:43;;;;;;;32.60;14.93;;;;;;;8.59;98.80;101491.34;5105779;28;20015;-70
2021/05/27 04:47:08;;;;;;;33.53;15.18;;;;;;;8.58;99.56;101492.19;5105710;28;20028;-76
2021/05/27 04:49:33;;;;;;;30.75;14.85;;;;;;;8.64;98.28;101488.78;5106925;28;20031;-69
2021/05/27 04:51:59;;;;;;;32.17;14.93;;;;;;;8.57;98.16;101495.66;5104175;28;20051;-64
2021/05/27 04:54:24;;;;;;;33.53;13.77;;;;;;;8.62;98.38;101496.66;5107388;28;20086;-65
2021/05/27 04:56:49;;;;;;;32.80;14.10;;;;;;;8.52;100.00;101500.81;5104645;28;20447;-64
2021/05/27 04:59:15;;;;;;;34.15;13.70;;;;;;;8.53;100.00;101506.97;5106168;28;20016;-64
2021/05/27 05:01:40;;;;;;;31.95;14.65;;;;;;;8.49;100.00;101506.03;5105792;28;20024;-64
2021/05/27 05:04:06;;;;;;;33.33;14.00;;;;;;;8.51;100.00;101506.94;5104450;28;20103;-64
2021/05/27 05:06:31;;;;;;;34.70;14.52;;;;;;;8.48;100.00;101503.38;5107245;28;20027;-64
2021/05/27 05:08:57;;;;;;;34.28;15.30;;;;;;;8.46;100.00;101513.88;5103220;28;20032;-64
2021/05/27 05:11:22;;;;;;;32.88;14.70;;;;;;;8.42;100.00;101513.69;5106896;28;20028;-64
2021/05/27 05:13:48;;;;;;;34.08;15.07;;;;;;;8.40;100.00;101516.28;5104648;28;20028;-64
2021/05/27 05:16:13;;;;;;;34.80;14.45;;;;;;;8.40;100.00;101516.28;5105330;28;20054;-64
2021/05/27 05:18:38;;;;;;;36.08;15.57;;;;;;;8.38;100.00;101515.38;5106002;28;20016;-64
2021/05/27 05:21:04;;;;;;;34.13;15.57;;;;;;;8.37;100.00;101516.22;5104010;28;20050;-64
2021/05/27 05:23:30;;;;;;;32.72;15.02;;;;;;;8.32;100.00;101517.88;5106724;28;20107;-64
2021/05/27 05:25:55;;;;;;;35.13;15.57;;;;;;;8.34;100.00;101514.44;5099120;28;20032;-64
2021/05/27 05:28:21;;;;;;;35.60;15.45;;;;;;;8.38;100.00;101516.25;5106537;28;20043;-64
2021/05/27 05:30:46;;;;;;;33.95;14.77;;;;;;;8.34;100.00;101516.16;5092636;28;20044;-63
2021/05/27 05:33:12;;;;;;;34.20;14.18;;;;;;;8.30;100.00;101515.22;5094772;28;20028;-63
2021/05/27 05:35:37;;;;;;;32.22;11.88;;;;;;;8.56;100.00;101517.59;5093786;28;20031;-64
2021/05/27 05:38:04;;;;;;;33.72;13.73;;;;;;;8.49;100.00;101513.94;5093271;28;20028;-64
2021/05/27 05:40:30;;;;;;;30.63;11.88;;;;;;;8.59;100.00;101522.03;5094238;28;20383;-65
2021/05/27 05:42:56;;;;;;;29.80;13.13;;;;;;;8.58;100.00;101530.81;5091632;28;20510;-64
2021/05/27 05:45:22;;;;;;;32.40;13.30;;;;;;;8.69;100.00;101529.31;5092893;28;20020;-65
2021/05/27 05:47:49;;;;;;;31.60;12.90;;;;;;;8.62;100.00;101530.03;5093271;28;20028;-65
2021/05/27 05:50:44;;;;;;;32.42;13.52;;;;;;;8.65;100.00;101533.63;5094120;28;20429;-64
2021/05/27 05:53:01;;;;;;;30.33;12.57;;;;;;;8.72;100.00;101532.91;5090655;28;20036;-64
2021/05/27 05:55:26;;;;;;;33.42;12.80;;;;;;;8.77;100.00;101535.66;5094042;28;20043;-65
2021/05/27 05:57:51;;;;;;;31.33;12.65;;;;;;;8.73;100.00;101531.16;5092937;28;20050;-64
2021/05/27 06:00:17;;;;;;;33.33;14.20;;;;;;;8.72;100.00;101534.66;5092740;28;20390;-64
2021/05/27 06:02:43;;;;;;;29.83;12.50;;;;;;;8.71;100.00;101539.03;5095137;28;20025;-64
2021/05/27 06:05:08;;;;;;;32.00;13.93;;;;;;;8.79;100.00;101541.84;5092373;28;20206;-65
2021/05/27 06:07:34;;;;;;;29.85;13.23;;;;;;;8.83;100.00;101548.97;5093744;28;20032;-65
2021/05/27 06:09:59;;;;;;;31.27;13.38;;;;;;;8.84;100.00;101553.41;5092461;28;20017;-65
2021/05/27 06:12:24;;;;;;;32.55;13.38;;;;;;;8.87;100.00;101561.38;5091244;28;20032;-66
2021/05/27 06:14:50;;;;;;;30.27;12.55;;;;;;;8.89;100.00;101550.84;5092438;28;20421;-65
2021/05/27 06:17:15;;;;;;;32.15;13.63;;;;;;;8.90;100.00;101557.94;5093107;28;20173;-65
2021/05/27 06:19:40;;;;;;;32.92;13.77;;;;;;;8.84;100.00;101555.13;5091771;28;20035;-65
2021/05/27 06:22:06;;;;;;;32.05;13.88;;;;;;;8.76;100.00;101552.31;5093371;28;20031;-64
2021/05/27 06:24:32;;;;;;;32.28;14.23;;;;;;;8.72;100.00;101559.28;5092377;27;20056;-64
2021/05/27 06:26:57;;;;;;;33.15;13.25;;;;;;;8.77;100.00;101556.75;5093201;28;20105;-64
2021/05/27 06:29:22;;;;;;;35.20;14.50;;;;;;;8.77;100.00;101562.03;5092168;28;20028;-65
2021/05/27 06:31:48;;;;;;;33.40;15.27;;;;;;;8.73;100.00;101558.41;5093020;28;20108;-64
2021/05/27 06:34:13;;;;;;;30.15;14.27;;;;;;;8.82;100.00;101557.72;5092540;28;20036;-64
2021/05/27 06:36:39;;;;;;;34.60;15.07;;;;;;;8.72;100.00;101554.00;5092411;28;20031;-65
2021/05/27 06:39:04;;;;;;;34.55;14.93;;;;;;;8.71;100.00;101560.13;5094884;28;20119;-65
2021/05/27 06:41:30;;;;;;;36.00;16.17;;;;;;;8.81;100.00;101555.97;5094267;28;20036;-64
2021/05/27 06:43:55;;;;;;;36.08;15.90;;;;;;;8.80;100.00;101558.56;5092629;28;20031;-64
2021/05/27 06:46:21;;;;;;;33.50;15.15;;;;;;;8.83;100.00;101561.28;5092469;28;20040;-64
2021/05/27 06:48:46;;;;;;;32.97;15.57;;;;;;;8.85;100.00;101576.28;5092570;28;20016;-64
2021/05/27 06:51:12;;;;;;;32.35;14.85;;;;;;;8.86;100.00;101582.44;5091359;28;20067;-65
2021/05/27 06:53:38;;;;;;;33.42;14.55;;;;;;;8.89;100.00;101575.47;5091987;28;20026;-65
2021/05/27 06:56:03;;;;;;;34.00;16.60;;;;;;;8.91;100.00;101578.13;5093531;28;20620;-65
2021/05/27 06:58:29;;;;;;;33.42;16.20;;;;;;;8.97;100.00;101578.31;5093740;28;20100;-65
2021/05/27 07:00:54;;;;;;;34.28;16.38;;;;;;;8.89;100.00;101579.88;5091916;28;20028;-65
2021/05/27 07:03:21;;;;;;;33.05;15.73;;;;;;;8.88;100.00;101576.34;5095240;28;20111;-65
2021/05/27 07:05:47;;;;;;;30.58;14.88;;;;;;;8.89;100.00;101583.38;5091976;28;20024;-65
2021/05/27 07:08:12;;;;;;;31.40;14.18;;;;;;;8.90;100.00;101581.66;5091944;28;20027;-64
2021/05/27 07:10:39;;;;;;;34.17;15.40;;;;;;;8.88;100.00;101581.63;5092343;28;20035;-65
2021/05/27 07:13:10;;;;;;;29.25;13.15;;;;;;;8.95;100.00;101585.28;5091152;28;20494;-65
2021/05/27 07:15:37;;;;;;;32.30;14.68;;;;;;;8.89;100.00;101591.28;5091647;28;20036;-64
2021/05/27 07:18:03;;;;;;;30.92;13.38;;;;;;;9.02;100.00;101587.19;5092289;28;20026;-64
2021/05/27 07:20:29;;;;;;;32.03;14.05;;;;;;;8.99;100.00;101587.13;5089852;28;20020;-64
2021/05/27 07:22:55;;;;;;;30.85;13.73;;;;;;;8.94;100.00;101591.44;5091517;28;20024;-64
2021/05/27 07:25:22;;;;;;;31.50;14.05;;;;;;;9.11;100.00;101596.19;5091225;28;20388;-64
2021/05/27 07:27:49;;;;;;;30.15;14.43;;;;;;;9.17;100.00;101593.66;5091395;28;20032;-64
2021/05/27 07:30:15;;;;;;;32.08;13.73;;;;;;;9.28;100.00;101594.81;5092464;28;20040;-64
2021/05/27 07:32:41;;;;;;;34.38;15.93;;;;;;;9.27;100.00;101600.94;5095724;28;20024;-64
2021/05/27 07:35:07;;;;;;;33.10;14.70;;;;;;;9.34;100.00;101607.25;5100931;28;20036;-64
2021/05/27 07:37:32;;;;;;;33.40;15.10;;;;;;;9.32;100.00;101603.66;5104268;28;20088;-64
2021/05/27 07:39:58;;;;;;;32.17;14.18;;;;;;;9.18;100.00;101603.38;5099676;28;20437;-64
2021/05/27 07:42:23;;;;;;;31.50;13.60;;;;;;;9.11;100.00;101602.34;5102949;28;20047;-64
2021/05/27 07:44:49;;;;;;;30.77;13.02;;;;;;;9.19;100.00;101602.53;5084098;28;20035;-64
2021/05/27 07:47:14;;;;;;;30.30;12.80;;;;;;;9.14;100.00;101606.78;5100319;28;20033;-64
2021/05/27 07:49:39;;;;;;;27.48;12.23;;;;;;;9.18;100.00;101611.28;5104336;28;20047;-64
2021/05/27 07:52:06;;;;;;;31.67;12.90;;;;;;;9.18;100.00;101608.66;5101304;28;20047;-65
2021/05/27 07:54:31;;;;;;;33.00;13.43;;;;;;;9.10;100.00;101604.94;5102265;28;20070;-65
2021/05/27 07:56:57;;;;;;;31.77;13.68;;;;;;;9.20;100.00;101618.38;5085537;28;20055;-64
2021/05/27 07:59:22;;;;;;;31.58;13.30;;;;;;;9.29;100.00;101614.16;5087246;28;20063;-76
2021/05/27 08:01:48;;;;;;;30.80;12.80;;;;;;;9.40;100.00;101625.84;5087339;28;20031;-66
2021/05/27 08:04:14;;;;;;;31.35;13.52;;;;;;;9.34;99.45;101621.31;5088686;28;20390;-74
2021/05/27 08:06:40;;;;;;;31.17;14.95;;;;;;;9.41;98.55;101625.88;5091077;28;20016;-71
2021/05/27 08:09:07;;;;;;;29.48;14.13;;;;;;;9.49;98.23;101627.78;5089170;28;20035;-66
2021/05/27 08:11:33;;;;;;;30.15;15.23;;;;;;;9.53;95.39;101622.59;5087299;28;20024;-67
2021/05/27 08:13:59;;;;;;;31.52;16.45;;;;;;;9.51;94.97;101628.69;5091519;28;20522;-66
2021/05/27 08:16:24;;;;;;;32.70;15.45;;;;;;;9.53;96.04;101622.59;5091510;28;20359;-66
2021/05/27 08:18:50;;;;;;;30.75;15.18;;;;;;;9.63;94.13;101626.31;5090488;28;20040;-65
2021/05/27 08:21:17;;;;;;;32.17;15.32;;;;;;;9.56;95.80;101641.13;5091555;28;20421;-71
2021/05/27 08:23:42;;;;;;;35.15;15.55;;;;;;;9.45;92.12;101623.28;5090968;28;20421;-72
2021/05/27 08:26:07;;;;;;;31.35;14.88;;;;;;;9.49;93.28;101636.56;5090667;28;20032;-75
2021/05/27 08:28:33;;;;;;;31.85;15.27;;;;;;;9.63;92.49;101647.44;5089893;28;20492;-64
2021/05/27 08:30:59;;;;;;;30.80;16.20;;;;;;;9.65;92.14;101650.13;5091242;28;20044;-65
2021/05/27 08:33:25;;;;;;;30.35;14.25;;;;;;;9.88;90.55;101645.31;5091088;28;20020;-65
2021/05/27 08:35:50;;;;;;;30.75;15.70;;;;;;;9.86;91.66;101653.19;5087262;28;20481;-65
2021/05/27 08:38:16;;;;;;;30.95;15.32;;;;;;;9.85;90.12;101653.16;5093225;28;20020;-66
2021/05/27 08:40:41;;;;;;;30.20;14.88;;;;;;;9.98;90.86;101652.56;5091470;28;20451;-66
2021/05/27 08:43:07;;;;;;;29.38;15.30;;;;;;;9.86;89.67;101647.00;5090273;28;20027;-66
2021/05/27 08:45:36;;;;;;;28.95;13.57;;;;;;;9.85;91.71;101664.63;5094133;28;20028;-66
2021/05/27 08:48:02;;;;;;;30.83;15.23;;;;;;;9.74;93.30;101663.50;5096464;28;20020;-65
2021/05/27 08:50:32;;;;;;;30.77;14.73;;;;;;;9.73;90.30;101657.34;5094840;28;20054;-65
2021/05/27 08:52:58;;;;;;;30.58;13.38;;;;;;;9.71;91.24;101659.06;5093441;28;20036;-65
2021/05/27 08:55:23;;;;;;;29.50;12.75;;;;;;;9.83;89.65;101658.44;5093423;28;20077;-65
2021/05/27 08:57:49;;;;;;;29.25;13.70;;;;;;;9.67;92.21;101667.78;5095401;28;20023;-66
2021/05/27 09:00:15;;;;;;;29.20;14.63;;;;;;;9.77;92.88;101668.84;5092107;28;20438;-66
2021/05/27 09:03:00;;;;;;;32.20;15.80;;;;;;;9.79;92.02;101672.41;5092036;28;20475;-67
2021/05/27 09:05:27;;;;;;;32.92;15.82;;;;;;;9.89;90.84;101670.88;5087252;28;20375;-65
2021/05/27 09:07:52;;;;;;;30.00;15.00;;;;;;;9.87;90.63;101667.28;5093818;28;20031;-64
2021/05/27 09:10:18;;;;;;;33.67;17.55;;;;;;;9.64;92.99;101674.72;5094350;28;20390;-64
2021/05/27 09:12:43;;;;;;;32.03;18.00;;;;;;;9.58;94.08;101678.13;5092728;28;20024;-64
2021/05/27 09:15:14;;;;;;;34.03;17.92;;;;;;;9.61;95.07;101680.84;5093043;28;20111;-64
2021/05/27 09:17:50;;;;;;;31.63;15.82;;;;;;;9.81;93.30;101677.72;5094641;28;20024;-64
2021/05/27 09:20:20;;;;;;;34.20;20.33;;;;;;;9.64;95.32;101687.91;5093469;28;20082;-64
2021/05/27 09:22:46;;;;;;;32.95;18.25;;;;;;;9.70;94.01;101686.31;5096675;28;20036;-72
2021/05/27 09:25:27;;;;;;;31.33;16.67;;;;;;;9.68;92.01;101690.66;5090915;28;20107;-72
2021/05/27 09:27:52;;;;;;;32.35;16.15;;;;;;;9.64;95.78;101688.84;5091230;28;20486;-72
2021/05/27 09:30:18;;;;;;;30.25;15.85;;;;;;;9.75;95.75;101683.78;5092985;28;20050;-69
2021/05/27 09:32:46;;;;;;;29.95;14.75;;;;;;;9.66;95.05;101696.78;5093805;28;20028;-72
2021/05/27 09:35:12;;;;;;;28.50;14.07;;;;;;;9.72;92.22;101691.63;5091126;28;20032;-64
2021/05/27 09:37:38;;;;;;;30.58;14.43;;;;;;;9.88;94.58;101700.75;5088540;28;20089;-64
2021/05/27 09:40:06;;;;;;;30.95;13.95;;;;;;;10.34;91.54;101692.88;5096741;28;20020;-64
2021/05/27 09:42:50;;;;;;;31.65;14.20;;;;;;;10.78;88.51;101696.31;5094045;28;20035;-64
2021/05/27 09:45:19;;;;;;;32.15;14.57;;;;;;;11.08;84.67;101700.34;5095851;28;20052;-64
2021/05/27 09:47:44;;;;;;;29.42;15.77;;;;;;;10.99;84.80;101700.19;5093831;28;20026;-64
2021/05/27 09:50:11;;;;;;;28.08;14.23;;;;;;;10.90;83.30;101702.69;5099232;28;20024;-64
2021/05/27 09:52:48;;;;;;;29.98;14.43;;;;;;;10.75;85.71;101701.56;5104495;28;20024;-64
2021/05/27 09:55:16;;;;;;;29.10;14.80;;;;;;;10.67;84.06;101707.59;5102103;28;20024;-64
2021/05/27 09:57:43;;;;;;;31.65;15.30;;;;;;;10.74;83.75;101714.78;5092711;28;20024;-64
2021/05/27 10:00:26;;;;;;;31.13;16.02;;;;;;;10.85;83.20;101699.97;5094022;28;20028;-72
2021/05/27 10:02:52;;;;;;;30.25;17.15;;;;;;;10.82;82.85;101714.03;5090627;28;20023;-64
2021/05/27 10:05:18;;;;;;;31.23;17.27;;;;;;;10.71;81.35;101715.59;5094006;28;20035;-65
2021/05/27 10:07:46;;;;;;;31.35;17.30;;;;;;;10.73;83.71;101719.19;5105384;28;20035;-65
2021/05/27 10:10:19;;;;;;;29.60;16.25;;;;;;;10.80;81.92;101723.72;5101618;28;20122;-65
2021/05/27 10:12:52;;;;;;;32.90;17.85;;;;;;;10.76;83.25;101726.25;5105912;28;20031;-65
2021/05/27 10:15:20;;;;;;;30.92;17.38;;;;;;;10.87;84.17;101727.34;5102517;28;20028;-65
2021/05/27 10:17:46;;;;;;;30.67;17.92;;;;;;;11.08;82.43;101736.50;5105737;28;20062;-65
2021/05/27 10:20:17;;;;;;;29.75;16.90;;;;;;;11.22;80.99;101732.31;5103023;28;20418;-65
2021/05/27 10:22:45;;;;;;;31.52;17.95;;;;;;;11.33;80.89;101727.22;5105184;28;20149;-65
2021/05/27 10:25:17;;;;;;;30.45;16.00;;;;;;;11.30;79.70;101733.34;5103341;28;20027;-66
2021/05/27 10:27:47;;;;;;;32.65;18.17;;;;;;;11.18;81.57;101732.25;5104762;28;20043;-66
2021/05/27 10:30:14;;;;;;;31.02;16.45;;;;;;;11.06;80.08;101736.47;5102771;28;20047;-66
2021/05/27 10:32:46;;;;;;;30.80;15.93;;;;;;;11.19;78.94;101740.22;5103412;28;20479;-66
2021/05/27 10:35:12;;;;;;;;;;;;;;;11.78;75.88;101734.03;5103218;28;20110;-72
2021/05/27 10:37:37;;;;;;;28.13;14.15;;;;;;;11.82;76.22;101737.59;5104143;28;19992;-66
2021/05/27 10:40:12;;;;;;;30.17;15.30;;;;;;;12.08;75.92;101731.78;5104169;28;20023;-66
2021/05/27 10:42:56;;;;;;;26.98;13.05;;;;;;;12.05;73.95;101737.06;5103799;28;20052;-66
2021/05/27 10:45:25;;;;;;;32.58;15.13;;;;;;;11.54;75.33;101731.91;5098336;28;20036;-66
2021/05/27 10:48:16;;;;;;;28.52;13.93;;;;;;;11.73;74.75;101738.34;5097938;28;20020;-66
2021/05/27 10:53:38;;;;;;;28.33;16.90;;;;;;;11.54;76.01;101741.63;5098919;28;20028;-66
2021/05/27 10:56:08;;;;;;;28.45;15.02;;;;;;;11.73;75.27;101732.19;5103328;28;20039;-66
2021/05/27 11:01:14;;;;;;;28.38;14.65;;;;;;;11.54;74.44;101746.94;5102296;28;20032;-64
2021/05/27 11:03:49;;;;;;;28.08;14.07;;;;;;;11.44;74.32;101745.88;5101340;28;20024;-65
2021/05/27 11:06:17;;;;;;;27.30;14.68;;;;;;;11.32;74.80;101743.94;5097769;28;20710;-65
2021/05/27 11:08:43;;;;;;;26.80;13.38;;;;;;;11.35;74.55;101751.94;5104959;28;20031;-65
2021/05/27 11:11:37;;;;;;;29.45;15.52;;;;;;;11.16;76.27;101754.28;5102309;28;20016;-65
2021/05/27 11:14:25;;;;;;;27.05;14.48;;;;;;;11.09;76.53;101760.34;5088222;28;20063;-66
2021/05/27 11:17:06;;;;;;;28.73;14.93;;;;;;;10.91;77.79;101760.03;5089385;28;20098;-65
2021/05/27 11:19:57;;;;;;;29.67;16.20;;;;;;;10.99;77.72;101761.94;5090315;28;20031;-67
2021/05/27 11:25:12;;;;;;;26.67;13.93;;;;;;;11.41;75.03;101767.03;5094042;28;20036;-70
2021/05/27 11:27:44;;;;;;;26.67;12.63;;;;;;;11.30;73.87;101769.47;5090008;28;20028;-68
2021/05/27 11:30:40;;;;;;;27.50;12.95;;;;;;;11.16;74.94;101766.63;5092261;28;20047;-66
2021/05/27 11:33:18;;;;;;;26.98;12.60;;;;;;;11.34;75.23;101763.38;5089918;28;20031;-67